createdAt,value
2023-03-28T00:00:32.763Z,2.69
2023-03-28T00:02:34.607Z,2.68
2023-03-28T00:04:36.498Z,2.68
2023-03-28T00:06:38.288Z,2.68
2023-03-28T00:08:41.035Z,2.67
2023-03-28T00:10:42.690Z,2.66
2023-03-28T00:12:44.790Z,2.66
2023-03-28T00:14:46.631Z,2.67
2023-03-28T00:16:49.817Z,2.66
2023-03-28T00:18:51.832Z,2.65
2023-03-28T00:20:53.475Z,2.64
2023-03-28T00:22:55.297Z,2.64
2023-03-28T00:24:56.980Z,2.64
2023-03-28T00:26:58.815Z,2.61
2023-03-28T00:29:02.324Z,2.60
2023-03-28T00:31:05.703Z,2.60
2023-03-28T00:33:09.128Z,2.59
2023-03-28T00:35:11.029Z,2.61
2023-03-28T00:37:12.837Z,2.60
2023-03-28T00:39:14.738Z,2.59
2023-03-28T00:41:17.323Z,2.59
2023-03-28T00:43:35.374Z,2.60
2023-03-28T00:45:37.133Z,2.57
2023-03-28T00:47:43.550Z,2.56
2023-03-28T00:49:49.425Z,2.55
2023-03-28T00:51:56.951Z,2.55
2023-03-28T00:54:01.696Z,2.51
2023-03-28T00:56:10.036Z,2.51
2023-03-28T00:58:15.832Z,2.51
2023-03-28T01:00:18.584Z,2.49
2023-03-28T01:02:20.706Z,2.48
2023-03-28T01:04:24.085Z,2.47
2023-03-28T01:06:32.030Z,2.46
2023-03-28T01:08:37.702Z,2.45
2023-03-28T01:10:40.942Z,2.43
2023-03-28T01:12:44.028Z,2.43
2023-03-28T01:14:47.955Z,2.42
2023-03-28T01:16:50.374Z,2.43
2023-03-28T01:18:52.803Z,2.42
2023-03-28T01:21:28.073Z,2.41
2023-03-28T01:24:11.380Z,2.41
2023-03-28T01:26:32.701Z,2.39
2023-03-28T01:29:02.904Z,2.37
2023-03-28T01:31:43.748Z,2.35
2023-03-28T01:34:20.786Z,2.32
2023-03-28T01:37:03.378Z,2.30
2023-03-28T01:39:14.911Z,2.24
2023-03-28T01:41:24.699Z,2.23
2023-03-28T01:43:34.830Z,2.22
2023-03-28T01:45:45.936Z,2.20
2023-03-28T01:47:55.027Z,2.17
2023-03-28T01:50:01.567Z,2.16
2023-03-28T01:52:14.459Z,2.15
2023-03-28T01:54:29.097Z,2.13
2023-03-28T01:56:38.793Z,2.13
2023-03-28T01:58:47.492Z,2.11
2023-03-28T02:00:56.238Z,2.09
2023-03-28T02:03:02.830Z,2.07
2023-03-28T02:05:09.851Z,2.06
2023-03-28T02:07:13.544Z,2.04
2023-03-28T02:09:17.814Z,2.03
2023-03-28T02:11:19.832Z,2.01
2023-03-28T02:13:25.981Z,2.01
2023-03-28T02:15:30.046Z,1.99
2023-03-28T02:17:38.452Z,1.99
2023-03-28T02:19:42.695Z,1.95
2023-03-28T02:21:52.297Z,1.96
2023-03-28T02:23:56.178Z,1.97
2023-03-28T02:25:58.948Z,1.96
2023-03-28T02:28:05.393Z,1.95
2023-03-28T02:30:09.239Z,1.95
2023-03-28T02:32:11.472Z,1.95
2023-03-28T02:34:13.115Z,1.97
2023-03-28T02:36:30.002Z,1.96
2023-03-28T02:38:43.049Z,1.96
2023-03-28T02:40:55.572Z,1.95
2023-03-28T02:43:31.538Z,2.00
2023-03-28T02:46:14.253Z,2.03
2023-03-28T02:48:28.263Z,2.04
2023-03-28T02:50:39.765Z,2.05
2023-03-28T02:52:50.728Z,2.05
2023-03-28T02:54:59.454Z,2.05
2023-03-28T02:57:07.436Z,2.06
2023-03-28T02:59:14.515Z,2.07
2023-03-28T03:01:16.172Z,2.04
2023-03-28T03:03:18.501Z,2.07
2023-03-28T03:05:21.489Z,2.05
2023-03-28T03:07:23.269Z,2.06
2023-03-28T03:09:26.009Z,2.03
2023-03-28T03:11:27.847Z,2.04
2023-03-28T03:13:31.099Z,2.03
2023-03-28T03:15:32.697Z,2.01
2023-03-28T03:17:34.786Z,2.02
2023-03-28T03:19:36.784Z,2.01
2023-03-28T03:21:38.416Z,2.00
2023-03-28T03:23:40.075Z,2.01
2023-03-28T03:25:42.915Z,2.00
2023-03-28T03:27:46.003Z,1.98
2023-03-28T03:29:49.672Z,1.96
2023-03-28T03:31:51.326Z,1.95
2023-03-28T03:33:53.139Z,1.96
2023-03-28T03:35:55.253Z,1.95
2023-03-28T03:37:57.163Z,1.95
2023-03-28T03:39:59.747Z,1.96
2023-03-28T03:42:01.780Z,1.96
2023-03-28T03:44:03.642Z,1.94
2023-03-28T03:46:07.162Z,1.96
2023-03-28T03:48:10.258Z,1.95
2023-03-28T03:50:12.417Z,1.95
2023-03-28T03:52:14.031Z,1.94
2023-03-28T03:54:16.230Z,1.94
2023-03-28T03:56:18.069Z,1.92
2023-03-28T03:58:20.591Z,1.90
2023-03-28T04:00:22.774Z,1.88
2023-03-28T04:02:26.233Z,1.86
2023-03-28T04:04:28.313Z,1.85
2023-03-28T04:06:34.132Z,1.83
2023-03-28T04:08:36.369Z,1.80
2023-03-28T04:10:38.206Z,1.79
2023-03-28T04:12:40.075Z,1.77
2023-03-28T04:14:41.886Z,1.75
2023-03-28T04:16:43.902Z,1.75
2023-03-28T04:18:47.324Z,1.77
2023-03-28T04:20:56.364Z,1.75
2023-03-28T04:22:58.887Z,1.75
2023-03-28T04:25:01.822Z,1.74
2023-03-28T04:27:03.628Z,1.73
2023-03-28T04:29:05.662Z,1.72
2023-03-28T04:31:07.835Z,1.71
2023-03-28T04:33:09.528Z,1.68
2023-03-28T04:35:12.832Z,1.68
2023-03-28T04:37:14.658Z,1.66
2023-03-28T04:39:16.684Z,1.65
2023-03-28T04:41:18.293Z,1.64
2023-03-28T04:43:20.541Z,1.63
2023-03-28T04:45:22.517Z,1.62
2023-03-28T04:47:24.245Z,1.62
2023-03-28T04:49:27.824Z,1.61
2023-03-28T04:51:31.030Z,1.60
2023-03-28T04:53:33.067Z,1.61
2023-03-28T04:55:35.009Z,1.60
2023-03-28T04:57:36.647Z,1.59
2023-03-28T04:59:38.426Z,1.58
2023-03-28T05:01:40.270Z,1.60
2023-03-28T05:03:41.901Z,1.59
2023-03-28T05:05:43.936Z,1.58
2023-03-28T05:07:46.901Z,1.60
2023-03-28T05:09:48.719Z,1.60
2023-03-28T05:11:50.575Z,1.61
2023-03-28T05:13:52.259Z,1.62
2023-03-28T05:15:53.911Z,1.63
2023-03-28T05:17:55.648Z,1.65
2023-03-28T05:19:57.803Z,1.66
2023-03-28T05:21:59.625Z,1.66
2023-03-28T05:24:02.838Z,1.68
2023-03-28T05:26:04.800Z,1.72
2023-03-28T05:28:06.474Z,1.72
2023-03-28T05:30:09.905Z,1.74
2023-03-28T05:32:12.696Z,1.77
2023-03-28T05:34:14.939Z,1.80
2023-03-28T05:36:16.564Z,1.81
2023-03-28T05:38:18.451Z,1.85
2023-03-28T05:40:22.020Z,1.89
2023-03-28T05:42:23.949Z,1.90
2023-03-28T05:44:25.858Z,1.96
2023-03-28T05:46:28.141Z,2.00
2023-03-28T05:48:30.434Z,2.03
2023-03-28T05:50:32.649Z,2.07
2023-03-28T05:52:34.583Z,2.10
2023-03-28T05:54:36.375Z,2.12
2023-03-28T05:56:39.422Z,2.14
2023-03-28T05:58:42.170Z,2.15
2023-03-28T06:00:44.241Z,2.16
2023-03-28T06:02:46.381Z,2.16
2023-03-28T06:04:48.340Z,2.17
2023-03-28T06:06:52.202Z,2.18
2023-03-28T06:08:54.832Z,2.19
2023-03-28T06:11:00.733Z,2.29
2023-03-28T06:13:04.860Z,2.35
2023-03-28T06:15:09.486Z,2.43
2023-03-28T06:17:11.381Z,2.43
2023-03-28T06:19:17.853Z,2.51
2023-03-28T06:21:20.597Z,2.57
2023-03-28T06:23:22.472Z,2.58
2023-03-28T06:25:24.081Z,2.64
2023-03-28T06:27:25.635Z,2.73
2023-03-28T06:29:28.717Z,2.82
2023-03-28T06:31:30.365Z,2.90
2023-03-28T06:33:32.167Z,2.97
2023-03-28T06:35:34.509Z,3.05
2023-03-28T06:37:36.103Z,3.13
2023-03-28T06:39:37.735Z,3.20
2023-03-28T06:41:39.348Z,3.28
2023-03-28T06:43:41.649Z,3.34
2023-03-28T06:45:47.390Z,3.41
2023-03-28T06:47:49.816Z,3.49
2023-03-28T06:49:53.406Z,3.56
2023-03-28T06:51:55.039Z,3.64
2023-03-28T06:53:56.651Z,3.71
2023-03-28T06:55:58.769Z,3.76
2023-03-28T06:58:00.422Z,3.81
2023-03-28T07:00:02.510Z,3.88
2023-03-28T07:02:05.800Z,3.92
2023-03-28T07:04:07.681Z,3.98
2023-03-28T07:06:10.764Z,4.04
2023-03-28T07:08:13.656Z,4.10
2023-03-28T07:10:15.454Z,4.16
2023-03-28T07:12:20.536Z,4.20
2023-03-28T07:14:23.044Z,4.26
2023-03-28T07:16:24.676Z,4.32
2023-03-28T07:18:28.086Z,4.38
2023-03-28T07:20:30.209Z,4.45
2023-03-28T07:22:32.445Z,4.49
2023-03-28T07:24:34.024Z,4.53
2023-03-28T07:26:35.840Z,4.59
2023-03-28T07:28:38.070Z,4.62
2023-03-28T07:30:40.326Z,4.69
2023-03-28T07:32:53.401Z,4.75
2023-03-28T07:34:59.896Z,4.81
2023-03-28T07:37:01.492Z,4.86
2023-03-28T07:39:03.349Z,4.90
2023-03-28T07:41:05.924Z,4.95
2023-03-28T07:43:07.865Z,5.00
2023-03-28T07:45:10.555Z,5.04
2023-03-28T07:47:12.275Z,5.08
2023-03-28T07:49:14.067Z,5.14
2023-03-28T07:51:17.312Z,5.19
2023-03-28T07:53:18.946Z,5.23
2023-03-28T07:55:20.447Z,5.29
2023-03-28T07:57:22.088Z,5.34
2023-03-28T07:59:23.954Z,5.38
2023-03-28T08:01:25.421Z,5.42
2023-03-28T08:03:27.072Z,5.48
2023-03-28T08:05:29.084Z,5.54
2023-03-28T08:07:32.352Z,5.61
2023-03-28T08:09:33.959Z,5.66
2023-03-28T08:11:36.095Z,5.72
2023-03-28T08:13:37.990Z,5.77
2023-03-28T08:15:39.912Z,5.82
2023-03-28T08:17:43.159Z,5.88
2023-03-28T08:19:44.764Z,5.95
2023-03-28T08:21:46.543Z,6.02
2023-03-28T08:23:49.598Z,6.07
2023-03-28T08:25:51.211Z,6.15
2023-03-28T08:27:53.796Z,6.23
2023-03-28T08:29:55.431Z,6.30
2023-03-28T08:31:57.327Z,6.34
2023-03-28T08:33:58.982Z,6.35
2023-03-28T08:36:01.235Z,6.38
2023-03-28T08:38:02.891Z,6.39
2023-03-28T08:40:13.831Z,6.41
2023-03-28T08:42:47.084Z,6.48
2023-03-28T08:45:02.697Z,6.53
2023-03-28T08:47:10.486Z,6.60
2023-03-28T08:49:16.873Z,6.66
2023-03-28T08:51:22.730Z,6.73
2023-03-28T08:53:28.818Z,6.78
2023-03-28T08:55:37.727Z,6.78
2023-03-28T08:57:41.502Z,6.78
2023-03-28T08:59:50.626Z,6.78
2023-03-28T09:01:52.720Z,6.80
2023-03-28T09:03:54.538Z,6.76
2023-03-28T09:06:04.802Z,6.77
2023-03-28T09:08:22.424Z,6.79
2023-03-28T09:10:30.768Z,6.80
2023-03-28T09:12:43.720Z,6.81
2023-03-28T09:15:14.207Z,6.79
2023-03-28T09:17:23.901Z,6.77
2023-03-28T09:19:47.949Z,6.77
2023-03-28T09:22:14.937Z,6.79
2023-03-28T09:24:33.917Z,6.81
2023-03-28T09:26:40.944Z,6.82
2023-03-28T09:28:52.522Z,6.85
2023-03-28T09:30:58.324Z,6.89
2023-03-28T09:33:05.648Z,6.90
2023-03-28T09:35:15.920Z,6.92
2023-03-28T09:37:27.582Z,6.96
2023-03-28T09:39:36.213Z,6.98
2023-03-28T09:41:49.493Z,7.01
2023-03-28T09:43:57.359Z,7.04
2023-03-28T09:46:05.102Z,7.08
2023-03-28T09:48:13.465Z,7.10
2023-03-28T09:50:17.770Z,7.13
2023-03-28T09:52:20.749Z,7.14
2023-03-28T09:54:29.203Z,7.17
2023-03-28T09:56:36.681Z,7.20
2023-03-28T09:58:49.233Z,7.27
2023-03-28T10:00:54.213Z,7.33
2023-03-28T10:02:56.342Z,7.31
2023-03-28T10:04:58.371Z,7.32
2023-03-28T10:07:28.405Z,7.43
2023-03-28T10:09:30.090Z,7.45
2023-03-28T10:11:44.934Z,7.47
2023-03-28T10:13:48.965Z,7.49
2023-03-28T10:15:55.690Z,7.50
2023-03-28T10:18:00.439Z,7.56
2023-03-28T10:20:04.842Z,7.58
2023-03-28T10:22:08.637Z,7.63
2023-03-28T10:24:14.086Z,7.66
2023-03-28T10:26:22.178Z,7.69
2023-03-28T10:28:30.646Z,7.72
2023-03-28T10:30:33.945Z,7.75
2023-03-28T10:32:37.466Z,7.81
2023-03-28T10:34:39.232Z,7.89
2023-03-28T10:36:42.671Z,7.95
2023-03-28T10:38:47.503Z,8.00
2023-03-28T10:40:53.632Z,8.06
2023-03-28T10:42:57.264Z,8.14
2023-03-28T10:45:00.419Z,8.22
2023-03-28T10:47:05.286Z,8.28
2023-03-28T10:49:14.995Z,8.34
2023-03-28T10:51:21.863Z,8.38
2023-03-28T10:53:36.578Z,8.44
2023-03-28T10:55:46.218Z,8.46
2023-03-28T10:58:00.034Z,8.46
2023-03-28T11:00:09.851Z,8.50
2023-03-28T11:02:30.582Z,8.55
2023-03-28T11:04:53.967Z,8.59
2023-03-28T11:07:05.180Z,8.66
2023-03-28T11:09:17.052Z,8.75
2023-03-28T11:11:33.213Z,8.84
2023-03-28T11:13:47.519Z,8.92
2023-03-28T11:15:57.874Z,8.97
2023-03-28T11:18:15.910Z,9.08
2023-03-28T11:20:29.310Z,9.13
2023-03-28T11:22:49.843Z,9.21
2023-03-28T11:25:17.137Z,9.31
2023-03-28T11:27:26.202Z,9.38
2023-03-28T11:29:43.198Z,9.47
2023-03-28T11:31:52.606Z,9.57
2023-03-28T11:34:01.822Z,9.66
2023-03-28T11:36:10.750Z,9.70
2023-03-28T11:38:16.523Z,9.76
2023-03-28T11:40:25.378Z,9.79
2023-03-28T11:42:32.284Z,9.83
2023-03-28T11:44:39.128Z,9.88
2023-03-28T11:46:47.431Z,9.96
2023-03-28T11:48:54.642Z,10.05
2023-03-28T11:51:03.621Z,10.17
2023-03-28T11:53:13.259Z,10.27
2023-03-28T11:55:19.162Z,10.37
2023-03-28T11:57:25.210Z,10.45
2023-03-28T11:59:33.677Z,10.54
2023-03-28T12:01:42.657Z,10.58
2023-03-28T12:03:54.895Z,10.66
2023-03-28T12:06:04.975Z,10.71
2023-03-28T12:08:12.171Z,10.80
2023-03-28T12:10:20.836Z,10.90
2023-03-28T12:12:28.500Z,10.92
2023-03-28T12:14:40.926Z,10.95
2023-03-28T12:16:48.896Z,11.03
2023-03-28T12:18:53.634Z,11.10
2023-03-28T12:21:02.345Z,11.14
2023-03-28T12:23:07.389Z,11.15
2023-03-28T12:25:19.349Z,11.19
2023-03-28T12:27:28.884Z,11.24
2023-03-28T12:29:40.303Z,11.30
2023-03-28T12:31:48.331Z,11.35
2023-03-28T12:33:58.547Z,11.37
2023-03-28T12:36:07.633Z,11.43
2023-03-28T12:38:27.584Z,11.52
2023-03-28T12:40:49.574Z,11.60
2023-03-28T12:42:54.198Z,11.63
2023-03-28T12:45:00.041Z,11.62
2023-03-28T12:47:07.972Z,11.59
2023-03-28T12:49:16.948Z,11.62
2023-03-28T12:51:26.385Z,11.67
2023-03-28T12:53:32.282Z,11.72
2023-03-28T12:55:47.494Z,11.81
2023-03-28T12:57:49.072Z,11.86
2023-03-28T13:00:14.411Z,11.95
2023-03-28T13:02:21.796Z,12.05
2023-03-28T13:04:31.868Z,12.17
2023-03-28T13:06:43.290Z,12.24
2023-03-28T13:09:16.718Z,12.30
2023-03-28T13:11:29.065Z,12.33
2023-03-28T13:13:38.609Z,12.35
2023-03-28T13:16:03.934Z,12.37
2023-03-28T13:18:27.230Z,12.39
2023-03-28T13:20:30.959Z,12.35
2023-03-28T13:22:41.905Z,12.35
2023-03-28T13:24:43.691Z,12.36
2023-03-28T13:26:58.086Z,12.41
2023-03-28T13:29:00.247Z,12.41
2023-03-28T13:31:11.842Z,12.44
2023-03-28T13:33:21.025Z,12.47
2023-03-28T13:35:43.844Z,12.54
2023-03-28T13:37:47.676Z,12.54
2023-03-28T13:39:57.924Z,12.57
2023-03-28T13:42:01.504Z,12.55
2023-03-28T13:44:09.326Z,12.53
2023-03-28T13:46:15.005Z,12.49
2023-03-28T13:48:17.222Z,12.48
2023-03-28T13:50:26.179Z,12.49
2023-03-28T13:52:27.811Z,12.49
2023-03-28T13:54:29.754Z,12.51
2023-03-28T13:56:33.471Z,12.49
2023-03-28T13:58:37.346Z,12.50
2023-03-28T14:00:39.420Z,12.52
2023-03-28T14:02:43.535Z,12.53
2023-03-28T14:04:51.910Z,12.49
2023-03-28T14:06:54.930Z,12.47
2023-03-28T14:09:00.459Z,12.43
2023-03-28T14:11:03.945Z,12.46
2023-03-28T14:13:10.617Z,12.44
2023-03-28T14:15:21.075Z,12.44
2023-03-28T14:17:26.821Z,12.42
2023-03-28T14:19:36.637Z,12.40
2023-03-28T14:21:38.619Z,12.35
2023-03-28T14:23:48.191Z,12.35
2023-03-28T14:25:50.074Z,12.32
2023-03-28T14:27:54.196Z,12.33
2023-03-28T14:29:58.586Z,12.26
2023-03-28T14:32:06.937Z,12.29
2023-03-28T14:34:22.650Z,12.27
2023-03-28T14:36:24.917Z,12.25
2023-03-28T14:38:33.251Z,12.25
2023-03-28T14:40:36.731Z,12.16
2023-03-28T14:42:38.356Z,12.17
2023-03-28T14:44:42.846Z,12.13
2023-03-28T14:46:44.521Z,12.13
2023-03-28T14:48:47.906Z,12.12
2023-03-28T14:50:53.635Z,12.10
2023-03-28T14:53:04.135Z,12.10
2023-03-28T14:55:07.545Z,12.09
2023-03-28T14:57:14.521Z,12.09
2023-03-28T14:59:18.387Z,12.10
2023-03-28T15:01:22.017Z,12.11
2023-03-28T15:03:30.291Z,12.09
2023-03-28T15:05:34.670Z,12.10
2023-03-28T15:07:37.745Z,12.07
2023-03-28T15:09:39.575Z,12.03
2023-03-28T15:11:43.340Z,12.00
2023-03-28T15:13:47.867Z,11.93
2023-03-28T15:15:50.159Z,11.88
2023-03-28T15:17:54.211Z,11.84
2023-03-28T15:19:57.628Z,11.80
2023-03-28T15:22:03.698Z,11.77
2023-03-28T15:24:10.042Z,11.69
2023-03-28T15:26:19.867Z,11.68
2023-03-28T15:28:22.126Z,11.63
2023-03-28T15:30:25.239Z,11.55
2023-03-28T15:32:28.282Z,11.52
2023-03-28T15:34:31.300Z,11.47
2023-03-28T15:36:33.875Z,11.42
2023-03-28T15:38:40.602Z,11.39
2023-03-28T15:40:44.241Z,11.36
2023-03-28T15:42:48.634Z,11.33
2023-03-28T15:45:24.711Z,11.32
2023-03-28T15:47:30.173Z,11.29
2023-03-28T15:49:36.088Z,11.27
2023-03-28T15:51:47.914Z,11.22
2023-03-28T15:53:51.077Z,11.19
2023-03-28T15:55:53.015Z,11.13
2023-03-28T15:57:55.471Z,11.07
2023-03-28T15:59:57.891Z,11.00
2023-03-28T16:02:31.059Z,10.96
2023-03-28T16:04:34.093Z,10.87
2023-03-28T16:06:41.483Z,10.80
2023-03-28T16:08:46.128Z,10.75
2023-03-28T16:10:49.044Z,10.66
2023-03-28T16:12:51.513Z,10.59
2023-03-28T16:14:54.522Z,10.54
2023-03-28T16:16:56.959Z,10.45
2023-03-28T16:18:59.299Z,10.39
2023-03-28T16:21:01.190Z,10.34
2023-03-28T16:23:02.843Z,10.25
2023-03-28T16:25:04.947Z,10.17
2023-03-28T16:27:07.878Z,10.11
2023-03-28T16:29:09.916Z,10.07
2023-03-28T16:31:14.610Z,10.01
2023-03-28T16:33:16.735Z,9.93
2023-03-28T16:35:18.982Z,9.90
2023-03-28T16:37:21.157Z,9.86
2023-03-28T16:39:22.732Z,9.81
2023-03-28T16:41:25.103Z,9.77
2023-03-28T16:43:28.344Z,9.75
2023-03-28T16:45:34.499Z,9.70
2023-03-28T16:47:36.303Z,9.65
2023-03-28T16:49:38.186Z,9.60
2023-03-28T16:51:39.780Z,9.55
2023-03-28T16:53:41.580Z,9.50
2023-03-28T16:55:43.220Z,9.45
2023-03-28T16:57:45.183Z,9.40
2023-03-28T16:59:48.339Z,9.36
2023-03-28T17:01:50.606Z,9.30
2023-03-28T17:03:52.412Z,9.26
2023-03-28T17:05:54.320Z,9.20
2023-03-28T17:07:56.126Z,9.15
2023-03-28T17:09:57.914Z,9.12
2023-03-28T17:12:00.946Z,9.07
2023-03-28T17:14:02.633Z,9.01
2023-03-28T17:16:07.137Z,8.99
2023-03-28T17:18:08.902Z,8.94
2023-03-28T17:20:11.424Z,8.88
2023-03-28T17:22:13.196Z,8.83
2023-03-28T17:24:14.974Z,8.78
2023-03-28T17:26:17.598Z,8.73
2023-03-28T17:28:19.605Z,8.69
2023-03-28T17:30:21.506Z,8.65
2023-03-28T17:32:24.602Z,8.60
2023-03-28T17:34:26.303Z,8.54
2023-03-28T17:36:29.214Z,8.49
2023-03-28T17:38:31.137Z,8.43
2023-03-28T17:40:32.937Z,8.38
2023-03-28T17:42:34.694Z,8.31
2023-03-28T17:44:36.696Z,8.25
2023-03-28T17:46:38.335Z,8.19
2023-03-28T17:48:42.218Z,8.10
2023-03-28T17:50:53.614Z,8.05
2023-03-28T17:52:55.236Z,7.98
2023-03-28T17:54:57.262Z,7.91
2023-03-28T17:56:58.882Z,7.86
2023-03-28T17:59:00.799Z,7.81
2023-03-28T18:01:02.610Z,7.76
2023-03-28T18:03:04.758Z,7.69
2023-03-28T18:05:08.586Z,7.65
2023-03-28T18:07:16.497Z,7.58
2023-03-28T18:09:19.648Z,7.50
2023-03-28T18:11:21.915Z,7.42
2023-03-28T18:13:23.826Z,7.39
2023-03-28T18:15:25.543Z,7.33
2023-03-28T18:17:27.211Z,7.28
2023-03-28T18:19:29.036Z,7.24
2023-03-28T18:21:32.836Z,7.18
2023-03-28T18:23:34.656Z,7.13
2023-03-28T18:25:36.426Z,7.09
2023-03-28T18:27:39.656Z,7.03
2023-03-28T18:29:41.220Z,7.00
2023-03-28T18:31:43.420Z,6.95
2023-03-28T18:33:45.419Z,6.91
2023-03-28T18:35:48.068Z,6.86
2023-03-28T18:37:51.119Z,6.81
2023-03-28T18:39:52.704Z,6.76
2023-03-28T18:41:57.173Z,6.73
2023-03-28T18:43:58.994Z,6.70
2023-03-28T18:46:01.605Z,6.67
2023-03-28T18:48:04.717Z,6.63
2023-03-28T18:50:08.086Z,6.59
2023-03-28T18:52:10.095Z,6.55
2023-03-28T18:54:13.269Z,6.51
2023-03-28T18:56:15.081Z,6.48
2023-03-28T18:58:16.948Z,6.43
2023-03-28T19:00:19.358Z,6.39
2023-03-28T19:02:21.171Z,6.33
2023-03-28T19:04:23.650Z,6.30
2023-03-28T19:06:25.401Z,6.25
2023-03-28T19:08:28.016Z,6.23
2023-03-28T19:10:31.397Z,6.20
2023-03-28T19:12:35.253Z,6.17
2023-03-28T19:14:38.989Z,6.13
2023-03-28T19:16:40.846Z,6.12
2023-03-28T19:18:44.208Z,6.09
2023-03-28T19:20:49.351Z,6.06
2023-03-28T19:22:51.170Z,6.04
2023-03-28T19:24:52.689Z,6.02
2023-03-28T19:26:57.621Z,5.97
2023-03-28T19:29:01.058Z,5.92
2023-03-28T19:31:05.381Z,5.90
2023-03-28T19:33:07.520Z,5.86
2023-03-28T19:35:10.109Z,5.82
2023-03-28T19:37:11.966Z,5.78
2023-03-28T19:39:16.473Z,5.76
2023-03-28T19:41:20.358Z,5.74
2023-03-28T19:43:23.839Z,5.72
2023-03-28T19:45:25.656Z,5.70
2023-03-28T19:47:27.260Z,5.69
2023-03-28T19:49:28.846Z,5.66
2023-03-28T19:51:30.632Z,5.64
2023-03-28T19:53:32.559Z,5.62
2023-03-28T19:55:34.401Z,5.61
2023-03-28T19:57:36.176Z,5.59
2023-03-28T19:59:39.266Z,5.59
2023-03-28T20:01:41.226Z,5.56
2023-03-28T20:03:43.232Z,5.54
2023-03-28T20:05:46.769Z,5.52
2023-03-28T20:07:48.588Z,5.51
2023-03-28T20:09:50.444Z,5.50
2023-03-28T20:11:52.245Z,5.49
2023-03-28T20:13:53.834Z,5.48
2023-03-28T20:15:56.931Z,5.46
2023-03-28T20:17:58.778Z,5.45
2023-03-28T20:20:00.484Z,5.45
2023-03-28T20:22:02.297Z,5.42
2023-03-28T20:24:04.394Z,5.43
2023-03-28T20:26:14.444Z,5.43
2023-03-28T20:28:16.296Z,5.42
2023-03-28T20:30:18.094Z,5.40
2023-03-28T20:32:21.327Z,5.39
2023-03-28T20:34:23.011Z,5.38
2023-03-28T20:36:25.052Z,5.36
2023-03-28T20:38:27.233Z,5.36
2023-03-28T20:40:29.183Z,5.35
2023-03-28T20:42:30.811Z,5.33
2023-03-28T20:44:32.845Z,5.33
2023-03-28T20:46:35.632Z,5.31
2023-03-28T20:48:39.565Z,5.29
2023-03-28T20:50:41.409Z,5.29
2023-03-28T20:52:43.109Z,5.27
2023-03-28T20:54:44.758Z,5.26
2023-03-28T20:56:47.034Z,5.25
2023-03-28T20:58:49.140Z,5.25
2023-03-28T21:00:55.487Z,5.24
2023-03-28T21:02:57.268Z,5.24
2023-03-28T21:05:00.423Z,5.23
2023-03-28T21:07:02.037Z,5.24
2023-03-28T21:09:06.337Z,5.23
2023-03-28T21:11:08.059Z,5.23
2023-03-28T21:13:09.916Z,5.22
2023-03-28T21:15:12.052Z,5.21
2023-03-28T21:17:13.934Z,5.21
2023-03-28T21:19:15.585Z,5.19
2023-03-28T21:21:19.896Z,5.18
2023-03-28T21:23:21.706Z,5.16
2023-03-28T21:25:23.242Z,5.16
2023-03-28T21:27:25.055Z,5.14
2023-03-28T21:29:26.652Z,5.14
2023-03-28T21:31:29.650Z,5.12
2023-03-28T21:33:31.868Z,5.11
2023-03-28T21:35:33.772Z,5.10
2023-03-28T21:37:36.947Z,5.10
2023-03-28T21:39:38.711Z,5.09
2023-03-28T21:41:40.525Z,5.09
2023-03-28T21:43:42.841Z,5.07
2023-03-28T21:45:44.822Z,5.07
2023-03-28T21:47:46.519Z,5.06
2023-03-28T21:49:48.422Z,5.05
2023-03-28T21:51:51.238Z,5.03
2023-03-28T21:53:54.425Z,5.03
2023-03-28T21:55:56.464Z,5.01
2023-03-28T21:57:58.273Z,5.00
2023-03-28T21:59:59.891Z,4.98
2023-03-28T22:02:01.717Z,4.98
2023-03-28T22:04:03.735Z,4.96
2023-03-28T22:06:06.192Z,4.94
2023-03-28T22:08:08.374Z,4.91
2023-03-28T22:10:12.541Z,4.90
2023-03-28T22:12:14.308Z,4.89
2023-03-28T22:14:15.884Z,4.87
2023-03-28T22:16:18.102Z,4.86
2023-03-28T22:18:20.848Z,4.84
2023-03-28T22:20:22.661Z,4.83
2023-03-28T22:22:24.265Z,4.81
2023-03-28T22:24:26.316Z,4.79
2023-03-28T22:26:30.146Z,4.78
2023-03-28T22:28:31.751Z,4.75
2023-03-28T22:30:34.595Z,4.72
2023-03-28T22:32:37.464Z,4.71
2023-03-28T22:34:39.324Z,4.70
2023-03-28T22:36:40.982Z,4.68
2023-03-28T22:38:42.754Z,4.66
2023-03-28T22:40:44.266Z,4.66
2023-03-28T22:42:47.360Z,4.63
2023-03-28T22:44:49.342Z,4.62
2023-03-28T22:46:51.577Z,4.60
2023-03-28T22:48:53.243Z,4.57
2023-03-28T22:50:54.852Z,4.56
2023-03-28T22:52:56.717Z,4.54
2023-03-28T22:54:58.300Z,4.52
2023-03-28T22:57:01.555Z,4.49
2023-03-28T22:59:04.647Z,4.48
2023-03-28T23:01:07.025Z,4.45
2023-03-28T23:03:08.775Z,4.43
2023-03-28T23:05:11.148Z,4.41
2023-03-28T23:07:12.968Z,4.40
2023-03-28T23:09:14.709Z,4.38
2023-03-28T23:11:16.455Z,4.36
2023-03-28T23:13:18.212Z,4.34
2023-03-28T23:15:21.829Z,4.32
2023-03-28T23:17:24.158Z,4.31
2023-03-28T23:19:25.729Z,4.31
2023-03-28T23:21:27.649Z,4.26
2023-03-28T23:23:29.547Z,4.29
2023-03-28T23:25:31.257Z,4.26
2023-03-28T23:27:33.097Z,4.26
2023-03-28T23:29:35.273Z,4.25
2023-03-28T23:31:38.876Z,4.25
2023-03-28T23:33:40.689Z,4.24
2023-03-28T23:35:42.802Z,4.23
2023-03-28T23:37:44.721Z,4.22
2023-03-28T23:39:46.585Z,4.22
2023-03-28T23:41:48.665Z,4.22
2023-03-28T23:43:50.661Z,4.21
2023-03-28T23:45:52.948Z,4.20
2023-03-28T23:47:56.085Z,4.19
2023-03-28T23:49:57.729Z,4.18
2023-03-28T23:51:59.487Z,4.18
2023-03-28T23:54:01.028Z,4.18
2023-03-28T23:56:02.820Z,4.17
2023-03-28T23:58:05.062Z,4.16
